地図

経路データ

SID SEASON NUMBER BASIN SUBBASIN NAME ISO_TIME NATURE LAT LON WMO_WIND WMO_PRES WMO_AGENCY TRACK_TYPE DIST2LAND LANDFALL IFLAG USA_AGENCY USA_ATCF_ID USA_LAT USA_LON USA_RECORD USA_STATUS USA_WIND USA_PRES USA_SSHS USA_R34_NE USA_R34_SE USA_R34_SW USA_R34_NW USA_R50_NE USA_R50_SE USA_R50_SW USA_R50_NW USA_R64_NE USA_R64_SE USA_R64_SW USA_R64_NW USA_POCI USA_ROCI USA_RMW USA_EYE TOKYO_LAT TOKYO_LON TOKYO_GRADE TOKYO_WIND TOKYO_PRES TOKYO_R50_DIR TOKYO_R50_LONG TOKYO_R50_SHORT TOKYO_R30_DIR TOKYO_R30_LONG TOKYO_R30_SHORT TOKYO_LAND CMA_LAT CMA_LON CMA_CAT CMA_WIND CMA_PRES HKO_LAT HKO_LON HKO_CAT HKO_WIND HKO_PRES NEWDELHI_LAT NEWDELHI_LON NEWDELHI_GRADE NEWDELHI_WIND NEWDELHI_PRES NEWDELHI_CI NEWDELHI_DP NEWDELHI_POCI REUNION_LAT REUNION_LON REUNION_TYPE REUNION_WIND REUNION_PRES REUNION_TNUM REUNION_CI REUNION_RMW REUNION_R34_NE REUNION_R34_SE REUNION_R34_SW REUNION_R34_NW REUNION_R50_NE REUNION_R50_SE REUNION_R50_SW REUNION_R50_NW REUNION_R64_NE REUNION_R64_SE REUNION_R64_SW REUNION_R64_NW BOM_LAT BOM_LON BOM_TYPE BOM_WIND BOM_PRES BOM_TNUM BOM_CI BOM_RMW BOM_R34_NE BOM_R34_SE BOM_R34_SW BOM_R34_NW BOM_R50_NE BOM_R50_SE BOM_R50_SW BOM_R50_NW BOM_R64_NE BOM_R64_SE BOM_R64_SW BOM_R64_NW BOM_ROCI BOM_POCI BOM_EYE BOM_POS_METHOD BOM_PRES_METHOD NADI_LAT NADI_LON NADI_CAT NADI_WIND NADI_PRES WELLINGTON_LAT WELLINGTON_LON WELLINGTON_WIND WELLINGTON_PRES DS824_LAT DS824_LON DS824_STAGE DS824_WIND DS824_PRES TD9636_LAT TD9636_LON TD9636_STAGE TD9636_WIND TD9636_PRES TD9635_LAT TD9635_LON TD9635_WIND TD9635_PRES TD9635_ROCI NEUMANN_LAT NEUMANN_LON NEUMANN_CLASS NEUMANN_WIND NEUMANN_PRES MLC_LAT MLC_LON MLC_CLASS MLC_WIND MLC_PRES USA_GUST BOM_GUST BOM_GUST_PER REUNION_GUST REUNION_GUST_PER USA_SEAHGT USA_SEARAD_NE USA_SEARAD_SE USA_SEARAD_SW USA_SEARAD_NW STORM_SPEED STORM_DIR
1879266N37286 1879 22 NA NA NOT_NAMED 1879-09-22 12:00:00 ET 36.5000 -74.5000 main 112 112 _____________O -1 36.5000 -74.5000 EX 35 20 78
1879266N37286 1879 22 NA NA NOT_NAMED 1879-09-22 15:00:00 ET 36.7027 -73.2888 main 219 219 _____________P -1 36.7027 -73.2888 EX 35 20 78
1879266N37286 1879 22 NA NA NOT_NAMED 1879-09-22 18:00:00 ET 36.9000 -72.1000 main 306 306 _____________O -1 36.9000 -72.1000 EX 35 19 78
1879266N37286 1879 22 NA NA NOT_NAMED 1879-09-22 21:00:00 ET 37.0984 -70.9493 main 391 391 _____________P -1 37.0984 -70.9493 EX 37 19 78
1879266N37286 1879 22 NA NA NOT_NAMED 1879-09-23 00:00:00 ET 37.3000 -69.8000 main 458 458 _____________O -1 37.3000 -69.8000 EX 40 19 78
1879266N37286 1879 22 NA NA NOT_NAMED 1879-09-23 03:00:00 ET 37.5065 -68.6073 main 480 478 _____________P -1 37.5065 -68.6073 EX 40 19 78
1879266N37286 1879 22 NA NA NOT_NAMED 1879-09-23 06:00:00 ET 37.7000 -67.4000 main 497 497 _____________O -1 37.7000 -67.4000 EX 40 19 81
1879266N37286 1879 22 NA NA NOT_NAMED 1879-09-23 09:00:00 ET 37.8179 -66.2268 main 541 541 _____________P -1 37.8179 -66.2268 EX 42 19 81
1879266N37286 1879 22 NA NA NOT_NAMED 1879-09-23 12:00:00 SS 38.0000 -65.0000 main 591 588 _____________O -1 38.0000 -65.0000 SS 45 21 75
1879266N37286 1879 22 NA NA NOT_NAMED 1879-09-23 15:00:00 SS 38.3691 -63.6386 main 584 576 _____________P -1 38.3691 -63.6386 SS 47 23 70
1879266N37286 1879 22 NA NA NOT_NAMED 1879-09-23 18:00:00 TS 38.8000 -62.2000 main 583 580 _____________O -1 38.8000 -62.2000 TS 50 24 71
1879266N37286 1879 22 NA NA NOT_NAMED 1879-09-23 21:00:00 TS 39.1498 -60.7185 main 621 617 _____________P -1 39.1498 -60.7185 TS 50 24 73
1879266N37286 1879 22 NA NA NOT_NAMED 1879-09-24 00:00:00 TS 39.5000 -59.3000 main 645 635 _____________O -1 39.5000 -59.3000 TS 50 22 70
1879266N37286 1879 22 NA NA NOT_NAMED 1879-09-24 03:00:00 TS 39.8975 -58.0614 main 638 634 _____________P -1 39.8975 -58.0614 TS 50 20 67
1879266N37286 1879 22 NA NA NOT_NAMED 1879-09-24 06:00:00 TS 40.3000 -56.9000 main 642 637 _____________O -1 40.3000 -56.9000 TS 50 20 65
1879266N37286 1879 22 NA NA NOT_NAMED 1879-09-24 09:00:00 TS 40.7475 -55.6581 main 663 627 _____________P -1 40.7475 -55.6581 TS 50 19 69
1879266N37286 1879 22 NA NA NOT_NAMED 1879-09-24 12:00:00 TS 41.0000 -54.5000 main 626 623 _____________O -1 41.0000 -54.5000 TS 50 16 87
1879266N37286 1879 22 NA NA NOT_NAMED 1879-09-24 15:00:00 TS 40.8379 -53.5593 main 644 644 _____________P -1 40.8379 -53.5593 TS 50 14 110
1879266N37286 1879 22 NA NA NOT_NAMED 1879-09-24 18:00:00 TS 40.5000 -52.7000 main 679 679 _____________O -1 40.5000 -52.7000 TS 50 14 114
1879266N37286 1879 22 NA NA NOT_NAMED 1879-09-24 21:00:00 TS 40.2472 -51.8338 main 720 720 _____________P -1 40.2472 -51.8338 TS 50 15 109
1879266N37286 1879 22 NA NA NOT_NAMED 1879-09-25 00:00:00 TS 40.0000 -50.8000 main 758 758 _____________O -1 40.0000 -50.8000 TS 50 19 105
1879266N37286 1879 22 NA NA NOT_NAMED 1879-09-25 03:00:00 TS 39.7506 -49.4251 main 815 815 _____________P -1 39.7506 -49.4251 TS 50 23 103
1879266N37286 1879 22 NA NA NOT_NAMED 1879-09-25 06:00:00 TS 39.5000 -47.9000 main 898 898 _____________O -1 39.5000 -47.9000 TS 50 25 103
1879266N37286 1879 22 NA NA NOT_NAMED 1879-09-25 09:00:00 TS 39.2000 -46.2981 main 994 994 _____________P -1 39.2000 -46.2981 TS 50 23 103
1879266N37286 1879 22 NA NA NOT_NAMED 1879-09-25 12:00:00 TS 39.0000 -45.0000 main 1075 1075 _____________O -1 39.0000 -45.0000 TS 50 15 96
1879266N37286 1879 22 NA NA NOT_NAMED 1879-09-25 15:00:00 TS 39.0443 -44.4020 main 1105 1097 _____________P -1 39.0443 -44.4020 TS 50 7 74
1879266N37286 1879 22 NA NA NOT_NAMED 1879-09-25 18:00:00 TS 39.2000 -44.1000 main 1104 1104 _____________O -1 39.2000 -44.1000 TS 50 6 67
1879266N37286 1879 22 NA NA NOT_NAMED 1879-09-25 21:00:00 TS 39.2999 -43.6424 main 1123 1123 _____________P -1 39.2999 -43.6424 TS 50 7 74
1879266N37286 1879 22 NA NA NOT_NAMED 1879-09-26 00:00:00 TS 39.4000 -43.2000 main 1137 1137 _____________O -1 39.4000 -43.2000 TS 50 7 73
1879266N37286 1879 22 NA NA NOT_NAMED 1879-09-26 03:00:00 TS 39.4997 -42.7998 main 1152 1152 _____________P -1 39.4997 -42.7998 TS 50 6 72
1879266N37286 1879 22 NA NA NOT_NAMED 1879-09-26 06:00:00 TS 39.6000 -42.4000 main 1168 1168 _____________O -1 39.6000 -42.4000 TS 50 5 82
1879266N37286 1879 22 NA NA NOT_NAMED 1879-09-26 09:00:00 TS 39.5760 -42.1294 main 1186 1186 _____________P -1 39.5760 -42.1294 TS 47 7 74
1879266N37286 1879 22 NA NA NOT_NAMED 1879-09-26 12:00:00 TS 39.8000 -41.5000 main 1208 1206 _____________O -1 39.8000 -41.5000 TS 45 19 58
1879266N37286 1879 22 NA NA NOT_NAMED 1879-09-26 15:00:00 TS 40.5834 -40.0435 main 1246 1246 _____________P -1 40.5834 -40.0435 TS 42 31 54
1879266N37286 1879 22 NA NA NOT_NAMED 1879-09-26 18:00:00 TS 41.6000 -38.2000 main 1306 1306 _____________O -1 41.6000 -38.2000 TS 40 33 54
1879266N37286 1879 22 NA NA NOT_NAMED 1879-09-26 21:00:00 TS 42.4978 -36.5030 main 1374 1374 _____________P -1 42.4978 -36.5030 TS 37 31 54
1879266N37286 1879 22 NA NA NOT_NAMED 1879-09-27 00:00:00 ET 43.4000 -34.8000 main 1452 1452 _____________O -1 43.4000 -34.8000 EX 35 31 54
1879266N37286 1879 22 NA NA NOT_NAMED 1879-09-27 03:00:00 ET 44.2975 -33.0949 main 1539 1539 _____________P -1 44.2975 -33.0949 EX 35 30 54
1879266N37286 1879 22 NA NA NOT_NAMED 1879-09-27 06:00:00 ET 45.2000 -31.4000 main 1635 1539 _____________O -1 45.2000 -31.4000 EX 35 30 53
1879266N37286 1879 22 NA NA NOT_NAMED 1879-09-27 09:00:00 ET 46.1049 -29.7113 main 1532 1377 _____________P -1 46.1049 -29.7113 EX 35 30 53
1879266N37286 1879 22 NA NA NOT_NAMED 1879-09-27 12:00:00 ET 47.0000 -28.0000 main 1370 _____________O -1 47.0000 -28.0000 EX 35 29 53

IBTrACS Databaseについて

本データベースは、米国NOAAが公開する1842年以降の世界の熱帯低気圧のベストトラックデータアーカイブInternational Best Track Archive for Climate Stewardship (IBTrACS)を、ウェブで閲覧しやすい形式に変換したものです。

最終更新日:2021-10-21